Time;durP1;ratioP1;P1;durP2;ratioP2;P2;SDS_P1;SDS_P2;PMS_P1;PMS_P2;Temp;Humidity;BMP_temperature;BMP_pressure;BME280_temperature;BME280_humidity;BME280_pressure;Samples;Min_cycle;Max_cycle;Signal;HPM_P1;HPM_P2
2023/04/17 00:02:12;;;;;;;31.20;22.07;;;13.60;99.90;;;;;;5019022;28;20440;-91
2023/04/17 00:04:40;;;;;;;29.10;21.30;;;13.60;99.90;;;;;;5002662;28;20555;-90
2023/04/17 00:07:06;;;;;;;28.20;18.97;;;13.60;99.90;;;;;;5019302;28;20881;-89
2023/04/17 00:09:32;;;;;;;27.33;20.80;;;13.60;99.90;;;;;;5002826;28;20432;-90
2023/04/17 00:11:58;;;;;;;31.70;22.30;;;13.60;99.90;;;;;;5002644;28;20478;-89
2023/04/17 00:14:24;;;;;;;30.80;20.80;;;13.60;99.90;;;;;;5002863;28;20422;-90
2023/04/17 00:16:52;;;;;;;30.20;20.67;;;13.60;99.90;;;;;;5002914;28;20454;-90
2023/04/17 00:19:18;;;;;;;24.83;20.00;;;13.60;99.90;;;;;;5002598;28;20460;-90
2023/04/17 00:21:46;;;;;;;34.67;21.90;;;13.60;99.90;;;;;;5002940;28;20473;-89
2023/04/17 00:24:12;;;;;;;28.03;20.70;;;13.60;99.90;;;;;;5017041;28;20462;-90
2023/04/17 00:26:38;;;;;;;27.40;20.00;;;13.60;99.90;;;;;;5018945;28;20453;-90
2023/04/17 00:29:04;;;;;;;25.97;20.43;;;13.60;99.90;;;;;;5038010;28;20427;-90
2023/04/17 00:31:32;;;;;;;30.00;21.50;;;13.60;99.90;;;;;;5035138;28;20468;-90
2023/04/17 00:34:00;;;;;;;27.37;20.60;;;13.60;99.90;;;;;;5021100;28;20435;-90
2023/04/17 00:36:26;;;;;;;31.67;21.33;;;13.60;99.90;;;;;;5018936;28;20509;-89
2023/04/17 00:38:52;;;;;;;27.80;20.27;;;13.60;99.90;;;;;;5036314;28;20427;-90
2023/04/17 00:41:20;;;;;;;22.60;19.13;;;13.60;99.90;;;;;;5018568;28;20476;-90
2023/04/17 00:43:46;;;;;;;26.33;20.37;;;13.60;99.90;;;;;;5008458;28;20442;-89
2023/04/17 00:46:13;;;;;;;25.43;19.03;;;13.60;99.90;;;;;;4985918;28;20421;-90
2023/04/17 00:48:39;;;;;;;26.17;19.90;;;13.60;99.90;;;;;;5002154;28;20841;-90
2023/04/17 00:51:06;;;;;;;28.80;19.20;;;13.60;99.90;;;;;;5018236;28;20555;-91
2023/04/17 00:53:35;;;;;;;27.73;18.97;;;13.60;99.90;;;;;;5001910;28;20896;-89
2023/04/17 00:56:05;;;;;;;34.30;20.03;;;13.60;99.90;;;;;;5018349;28;20916;-90
2023/04/17 00:58:34;;;;;;;25.07;19.07;;;13.50;99.90;;;;;;5001822;28;20437;-90
2023/04/17 01:01:00;;;;;;;25.87;20.73;;;13.60;99.90;;;;;;5002218;28;20470;-90
2023/04/17 01:03:28;;;;;;;28.30;20.87;;;13.60;99.90;;;;;;5001973;28;20423;-90
2023/04/17 01:05:55;;;;;;;27.57;19.90;;;13.50;99.90;;;;;;5002196;28;20493;-90
2023/04/17 01:08:21;;;;;;;21.83;18.47;;;13.50;99.90;;;;;;5002086;28;20447;-90
2023/04/17 01:10:47;;;;;;;27.90;20.67;;;13.50;99.90;;;;;;5001755;28;20503;-91
2023/04/17 01:13:13;;;;;;;22.77;18.57;;;13.50;99.90;;;;;;5002112;28;20440;-90
2023/04/17 01:15:41;;;;;;;29.70;19.20;;;13.50;99.90;;;;;;5018200;28;20474;-90
2023/04/17 01:18:08;;;;;;;24.10;19.03;;;13.50;99.90;;;;;;5034373;28;20426;-91
2023/04/17 01:20:34;;;;;;;27.30;19.63;;;13.50;99.90;;;;;;5018073;28;20459;-91
2023/04/17 01:23:00;;;;;;;22.90;18.70;;;13.50;99.90;;;;;;5018172;28;20731;-89
2023/04/17 01:25:27;;;;;;;22.43;17.97;;;13.50;99.90;;;;;;5018021;28;20764;-90
2023/04/17 01:27:53;;;;;;;25.23;19.03;;;13.50;99.90;;;;;;5034635;28;20450;-90
2023/04/17 01:30:20;;;;;;;27.50;19.03;;;13.50;99.90;;;;;;5034699;28;20850;-90
2023/04/17 01:33:00;;;;;;;25.27;19.43;;;13.50;99.90;;;;;;4987574;28;20468;-90
2023/04/17 01:35:26;;;;;;;24.70;18.70;;;13.50;99.90;;;;;;5050932;28;20474;-90
2023/04/17 01:37:58;;;;;;;24.57;18.47;;;13.50;99.90;;;;;;5018088;28;20433;-90
2023/04/17 01:40:24;;;;;;;22.67;17.80;;;13.50;99.90;;;;;;5018035;28;20426;-90
2023/04/17 01:42:50;;;;;;;24.23;18.47;;;13.50;99.90;;;;;;5018187;28;20433;-90
2023/04/17 01:45:16;;;;;;;26.30;19.70;;;13.50;99.90;;;;;;5017892;28;20461;-90
2023/04/17 01:47:42;;;;;;;28.03;20.30;;;13.50;99.90;;;;;;5017924;28;20427;-89
2023/04/17 01:50:09;;;;;;;25.63;18.60;;;13.50;99.90;;;;;;5001362;28;20458;-90
2023/04/17 01:52:35;;;;;;;24.27;19.37;;;13.50;99.90;;;;;;5017541;28;20489;-90
2023/04/17 01:55:06;;;;;;;26.73;20.50;;;13.50;99.90;;;;;;5018291;28;20528;-89
2023/04/17 01:57:32;;;;;;;25.30;19.63;;;13.50;99.90;;;;;;5033712;28;20426;-90
2023/04/17 01:59:58;;;;;;;24.50;18.87;;;13.50;99.90;;;;;;5017757;28;20596;-90
2023/04/17 02:02:27;;;;;;;28.27;19.60;;;13.50;99.90;;;;;;5033919;28;20921;-91
2023/04/17 02:04:54;;;;;;;22.03;18.50;;;13.50;99.90;;;;;;5034271;28;20514;-91
2023/04/17 02:07:20;;;;;;;25.27;18.47;;;13.40;99.90;;;;;;5017538;28;20562;-90
2023/04/17 02:09:46;;;;;;;24.33;19.10;;;13.50;99.90;;;;;;5034774;28;20448;-90
2023/04/17 02:12:12;;;;;;;28.00;20.10;;;13.40;99.90;;;;;;5004727;28;20501;-90
2023/04/17 02:14:38;;;;;;;27.83;20.93;;;13.40;99.90;;;;;;5021248;28;20433;-90
2023/04/17 02:17:06;;;;;;;26.90;19.30;;;13.50;99.90;;;;;;5025048;28;20426;-90
2023/04/17 02:19:41;;;;;;;20.33;17.40;;;13.50;99.90;;;;;;5040739;28;20433;-90
2023/04/17 02:22:07;;;;;;;23.83;19.57;;;13.40;99.90;;;;;;5040952;28;20399;-90
2023/04/17 02:24:34;;;;;;;27.80;17.90;;;13.40;99.90;;;;;;5024414;28;20437;-90
2023/04/17 02:27:01;;;;;;;22.33;18.20;;;13.40;99.90;;;;;;5024722;28;20460;-91
2023/04/17 02:29:30;;;;;;;26.53;19.80;;;13.40;99.90;;;;;;5040852;28;20562;-90
2023/04/17 02:31:56;;;;;;;26.00;19.90;;;13.40;99.90;;;;;;5024334;28;20458;-89
2023/04/17 02:34:22;;;;;;;24.77;19.93;;;13.40;99.90;;;;;;5024001;28;20483;-88
2023/04/17 02:36:54;;;;;;;24.97;19.43;;;13.40;99.90;;;;;;5012816;28;20231;-89
2023/04/17 02:39:23;;;;;;;28.57;20.80;;;13.40;99.90;;;;;;5020178;28;20416;-88
2023/04/17 02:41:49;;;;;;;26.53;20.70;;;13.40;99.90;;;;;;5020396;28;20448;-89
2023/04/17 02:44:15;;;;;;;30.30;19.83;;;13.40;99.90;;;;;;5003873;28;20428;-88
2023/04/17 02:46:41;;;;;;;22.87;19.27;;;13.40;99.90;;;;;;5020082;28;20494;-88
2023/04/17 02:49:09;;;;;;;23.00;19.07;;;13.40;99.90;;;;;;5012168;28;20502;-89
2023/04/17 02:51:35;;;;;;;28.97;19.53;;;13.40;99.90;;;;;;5019806;28;20469;-89
2023/04/17 02:54:02;;;;;;;24.73;20.47;;;13.40;99.90;;;;;;5020441;28;21036;-90
2023/04/17 02:56:28;;;;;;;22.53;19.20;;;13.40;99.90;;;;;;5036520;28;20422;-90
2023/04/17 02:58:54;;;;;;;25.97;20.00;;;13.40;99.90;;;;;;5020393;28;20427;-90
2023/04/17 03:01:23;;;;;;;26.80;20.17;;;13.40;99.90;;;;;;5003226;28;20455;-90
2023/04/17 03:03:51;;;;;;;30.47;19.87;;;13.40;99.90;;;;;;5003953;28;20426;-91
2023/04/17 03:06:17;;;;;;;25.40;19.90;;;13.40;99.90;;;;;;5020306;28;20443;-90
2023/04/17 03:08:43;;;;;;;26.07;19.77;;;13.40;99.90;;;;;;5019929;28;20983;-90
2023/04/17 03:11:09;;;;;;;31.90;21.80;;;13.30;99.90;;;;;;5019973;28;20285;-90
2023/04/17 03:13:35;;;;;;;27.27;19.33;;;13.30;99.90;;;;;;5023751;28;20472;-89
2023/04/17 03:16:03;;;;;;;27.60;20.00;;;13.30;99.90;;;;;;5023201;28;20444;-90
2023/04/17 03:18:30;;;;;;;29.93;20.87;;;13.30;99.90;;;;;;5023273;28;20546;-90
2023/04/17 03:20:56;;;;;;;33.43;21.60;;;13.30;99.90;;;;;;5022654;28;21191;-89
2023/04/17 03:23:25;;;;;;;28.80;21.97;;;13.30;99.90;;;;;;5023095;28;20418;-90
2023/04/17 03:25:53;;;;;;;30.57;21.40;;;13.30;99.90;;;;;;5023301;28;20430;-91
2023/04/17 03:28:20;;;;;;;28.77;20.83;;;13.30;99.90;;;;;;5023158;28;20466;-88
2023/04/17 03:30:48;;;;;;;23.27;19.80;;;13.30;99.90;;;;;;5022880;28;20495;-89
2023/04/17 03:33:15;;;;;;;27.77;19.73;;;13.30;99.90;;;;;;5039531;28;20409;-90
2023/04/17 03:35:45;;;;;;;26.43;19.60;;;13.30;99.90;;;;;;5022772;28;20573;-89
2023/04/17 03:38:15;;;;;;;27.83;20.37;;;13.30;99.90;;;;;;5022797;28;20426;-90
2023/04/17 03:40:42;;;;;;;30.67;22.10;;;13.30;99.90;;;;;;5022818;28;20516;-89
2023/04/17 03:43:09;;;;;;;27.87;21.10;;;13.30;99.90;;;;;;5038869;28;20485;-89
2023/04/17 03:45:35;;;;;;;25.30;19.87;;;13.30;99.90;;;;;;5038638;28;20423;-89
2023/04/17 03:48:01;;;;;;;26.57;20.70;;;13.30;99.90;;;;;;4998241;28;20526;-88
2023/04/17 03:50:28;;;;;;;25.50;20.23;;;13.30;99.90;;;;;;4982127;28;20803;-89
2023/04/17 03:52:55;;;;;;;25.77;20.27;;;13.20;99.90;;;;;;4982326;28;20443;-89
2023/04/17 03:55:24;;;;;;;30.87;21.90;;;13.30;99.90;;;;;;4982212;28;20440;-90
2023/04/17 03:57:51;;;;;;;24.40;20.20;;;13.30;99.90;;;;;;4998289;28;20480;-89
2023/04/17 04:00:20;;;;;;;26.00;20.83;;;13.30;99.90;;;;;;4998555;28;20434;-89
2023/04/17 04:02:50;;;;;;;25.00;19.60;;;13.30;99.90;;;;;;4998708;28;20803;-89
2023/04/17 04:05:21;;;;;;;24.70;19.17;;;13.30;99.90;;;;;;5014887;28;20489;-89
2023/04/17 04:07:50;;;;;;;30.00;21.17;;;13.30;99.90;;;;;;4998048;28;20434;-88
2023/04/17 04:10:23;;;;;;;27.40;21.70;;;13.30;99.90;;;;;;4997801;28;20712;-89
2023/04/17 04:12:52;;;;;;;29.27;21.00;;;13.30;99.90;;;;;;4981768;28;20485;-87
2023/04/17 04:15:18;;;;;;;29.27;21.00;;;13.20;99.90;;;;;;4997918;28;20778;-88
2023/04/17 04:17:47;;;;;;;24.23;20.57;;;13.20;99.90;;;;;;4997881;28;20968;-89
2023/04/17 04:20:13;;;;;;;28.77;20.77;;;13.20;99.90;;;;;;4998087;28;20455;-89
2023/04/17 04:22:43;;;;;;;28.90;21.17;;;13.20;99.90;;;;;;4981654;28;20451;-89
2023/04/17 04:25:11;;;;;;;29.97;21.60;;;13.20;99.90;;;;;;5025951;28;20455;-91
2023/04/17 04:27:48;;;;;;;27.30;21.00;;;13.20;99.90;;;;;;5038297;28;20400;-90
2023/04/17 04:30:17;;;;;;;30.57;22.20;;;13.20;99.90;;;;;;5021622;28;20455;-89
2023/04/17 04:32:47;;;;;;;29.90;20.50;;;13.20;99.90;;;;;;5021718;28;20429;-90
2023/04/17 04:35:14;;;;;;;28.23;21.10;;;13.20;99.90;;;;;;5021602;28;20579;-89
2023/04/17 04:37:45;;;;;;;29.43;21.37;;;13.20;99.90;;;;;;5021120;28;20218;-88
2023/04/17 04:40:15;;;;;;;26.80;20.40;;;13.20;99.90;;;;;;5037737;28;20414;-88
2023/04/17 04:42:48;;;;;;;26.00;20.57;;;13.20;99.90;;;;;;5038106;28;20442;-89
2023/04/17 04:45:18;;;;;;;27.07;20.73;;;13.20;99.90;;;;;;5003758;28;20593;-88
2023/04/17 04:47:47;;;;;;;29.07;21.10;;;13.20;99.90;;;;;;5018321;28;20449;-90
2023/04/17 04:50:15;;;;;;;27.03;20.70;;;13.20;99.90;;;;;;5017761;28;20878;-89
2023/04/17 04:53:08;;;;;;;25.43;20.63;;;13.20;99.90;;;;;;5001647;28;20444;-89
2023/04/17 04:55:43;;;;;;;29.70;21.20;;;13.20;99.90;;;;;;5002265;28;20438;-91
2023/04/17 04:58:09;;;;;;;28.37;20.87;;;13.20;99.90;;;;;;5001658;28;20513;-91
2023/04/17 05:00:36;;;;;;;32.00;23.37;;;13.10;99.90;;;;;;5019003;28;21087;-91
2023/04/17 05:03:03;;;;;;;29.40;20.80;;;13.20;99.90;;;;;;5018545;28;20455;-90
2023/04/17 05:05:29;;;;;;;26.63;21.40;;;13.20;99.90;;;;;;5034701;28;20418;-91
2023/04/17 05:07:55;;;;;;;27.13;19.80;;;13.10;99.90;;;;;;5001897;28;20497;-91
2023/04/17 05:10:25;;;;;;;28.07;21.57;;;13.10;99.90;;;;;;5001839;28;20452;-91
2023/04/17 05:12:57;;;;;;;28.30;21.57;;;13.10;99.90;;;;;;4986669;28;20413;-91
2023/04/17 05:15:23;;;;;;;27.93;21.17;;;13.10;99.90;;;;;;5002178;28;20430;-91
2023/04/17 05:17:51;;;;;;;31.40;22.10;;;13.10;99.90;;;;;;5002345;28;20522;-91
2023/04/17 05:20:17;;;;;;;29.93;22.00;;;13.10;99.90;;;;;;5001972;28;20417;-91
2023/04/17 05:22:54;;;;;;;26.53;20.50;;;13.10;99.90;;;;;;4987016;28;20496;-91
2023/04/17 05:25:24;;;;;;;28.83;22.83;;;13.10;99.90;;;;;;5001842;28;20436;-91
2023/04/17 05:27:52;;;;;;;33.43;22.90;;;13.10;99.90;;;;;;5018107;28;20430;-91
2023/04/17 05:30:18;;;;;;;28.57;22.13;;;13.10;99.90;;;;;;4997323;28;20451;-90
2023/04/17 05:32:47;;;;;;;30.17;22.73;;;13.10;99.90;;;;;;4997415;28;20417;-91
2023/04/17 05:35:40;;;;;;;33.60;23.53;;;13.10;99.90;;;;;;4994412;28;20438;-90
2023/04/17 05:38:06;;;;;;;28.67;22.57;;;13.10;99.90;;;;;;4981051;28;20452;-89
2023/04/17 05:40:36;;;;;;;32.27;24.13;;;13.10;99.90;;;;;;4981371;28;20528;-91
2023/04/17 05:43:09;;;;;;;34.40;24.53;;;13.10;99.90;;;;;;4997250;28;20506;-90
2023/04/17 05:45:36;;;;;;;30.80;23.20;;;13.10;99.90;;;;;;4984571;28;20423;-90
2023/04/17 05:48:02;;;;;;;35.23;25.27;;;13.10;99.90;;;;;;4968838;28;20986;-90
2023/04/17 05:50:28;;;;;;;29.93;24.23;;;13.10;99.90;;;;;;4968048;28;20480;-89
2023/04/17 05:52:55;;;;;;;28.87;22.77;;;13.10;99.90;;;;;;4984705;28;20454;-90
2023/04/17 05:55:24;;;;;;;32.07;22.53;;;13.10;99.90;;;;;;5001015;28;20440;-89
2023/04/17 05:57:54;;;;;;;33.60;25.23;;;13.10;99.90;;;;;;5000950;28;20455;-90
2023/04/17 06:00:21;;;;;;;31.10;23.50;;;13.10;99.90;;;;;;5003461;28;20561;-90
2023/04/17 06:02:52;;;;;;;32.87;24.90;;;13.10;99.90;;;;;;5020341;28;20437;-90
2023/04/17 06:05:29;;;;;;;34.47;24.73;;;13.10;99.90;;;;;;5006310;28;20436;-89
2023/04/17 06:07:55;;;;;;;31.77;24.40;;;13.10;99.90;;;;;;5021024;28;20500;-88
2023/04/17 06:10:21;;;;;;;36.33;25.17;;;13.10;99.90;;;;;;5020949;28;20231;-89
2023/04/17 06:12:47;;;;;;;32.27;24.07;;;13.00;99.90;;;;;;5004390;28;20501;-89
2023/04/17 06:15:16;;;;;;;31.70;25.43;;;13.00;99.90;;;;;;5004543;28;20461;-90
2023/04/17 06:17:42;;;;;;;35.00;26.17;;;13.10;99.90;;;;;;5004936;28;20436;-91
2023/04/17 06:20:10;;;;;;;35.30;26.37;;;13.00;99.90;;;;;;5004789;28;20458;-89
2023/04/17 06:22:43;;;;;;;35.20;23.50;;;13.00;99.90;;;;;;5004312;28;20454;-90
2023/04/17 06:25:09;;;;;;;44.30;32.63;;;13.00;99.90;;;;;;5004742;28;20445;-94
2023/04/17 06:27:35;;;;;;;44.97;31.30;;;12.90;99.90;;;;;;5004675;28;20451;-93
2023/04/17 06:30:02;;;;;;;42.13;29.73;;;12.70;99.90;;;;;;5004054;28;20555;-94
2023/04/17 06:32:30;;;;;;;38.20;28.20;;;12.50;99.90;;;;;;5004656;28;20469;-93
2023/04/17 06:34:56;;;;;;;43.17;31.80;;;12.30;99.90;;;;;;5020894;28;20473;-94
2023/04/17 06:37:32;;;;;;;43.10;29.40;;;12.20;99.90;;;;;;5021955;28;20470;-93
2023/04/17 06:39:58;;;;;;;39.97;29.87;;;12.20;99.90;;;;;;5020774;28;20466;-92
2023/04/17 06:42:24;;;;;;;39.57;28.90;;;12.20;99.90;;;;;;5004600;28;20481;-93
2023/04/17 06:44:58;;;;;;;39.90;29.90;;;12.20;99.90;;;;;;5005188;28;20437;-94
2023/04/17 06:47:24;;;;;;;41.00;29.60;;;12.20;99.90;;;;;;5020368;28;20417;-93
2023/04/17 06:49:50;;;;;;;45.07;29.13;;;12.10;99.90;;;;;;5003878;28;20547;-94
2023/04/17 06:52:19;;;;;;;41.77;29.20;;;12.20;99.90;;;;;;5003448;28;20531;-90
2023/04/17 06:54:45;;;;;;;37.90;29.53;;;12.10;99.90;;;;;;5003222;28;20766;-87
2023/04/17 06:57:11;;;;;;;41.83;31.10;;;12.10;99.90;;;;;;5001799;28;20446;-88
2023/04/17 06:59:37;;;;;;;37.30;29.27;;;12.10;99.90;;;;;;5020227;28;20426;-90
2023/04/17 07:02:03;;;;;;;36.50;29.17;;;12.10;99.90;;;;;;5037443;28;20426;-91
2023/04/17 07:04:30;;;;;;;39.80;30.43;;;12.10;99.90;;;;;;5019985;28;20447;-90
2023/04/17 07:06:56;;;;;;;43.43;31.20;;;12.20;99.90;;;;;;5003595;28;20490;-90
2023/04/17 07:09:24;;;;;;;40.77;30.77;;;12.20;99.90;;;;;;5003324;28;20433;-88
2023/04/17 07:11:49;;;;;;;42.33;30.17;;;12.20;99.90;;;;;;5003007;28;20473;-90
2023/04/17 07:14:15;;;;;;;38.57;30.53;;;12.20;99.90;;;;;;5000289;28;20512;-93
2023/04/17 07:16:41;;;;;;;34.77;27.80;;;12.20;99.90;;;;;;5016078;28;20420;-89
2023/04/17 07:19:07;;;;;;;38.73;29.70;;;12.20;99.90;;;;;;5016891;28;20982;-89
2023/04/17 07:21:59;;;;;;;44.90;29.80;;;12.20;99.90;;;;;;4996618;28;20751;-91
2023/04/17 07:24:25;;;;;;;39.27;30.67;;;12.20;99.90;;;;;;5019481;28;20420;-91
2023/04/17 07:26:50;;;;;;;36.03;27.77;;;12.20;99.90;;;;;;5036286;28;20462;-90
2023/04/17 07:29:19;;;;;;;43.73;30.77;;;12.10;99.90;;;;;;5019003;28;20434;-90
2023/04/17 07:31:45;;;;;;;40.90;30.57;;;12.10;99.90;;;;;;5019242;28;20845;-87
2023/04/17 07:34:13;;;;;;;36.97;29.33;;;12.10;99.90;;;;;;5035399;28;20429;-88
2023/04/17 07:36:39;;;;;;;37.57;29.50;;;12.10;99.90;;;;;;5036123;28;20427;-90
2023/04/17 07:39:08;;;;;;;44.30;32.63;;;12.10;99.90;;;;;;5036377;28;20420;-92
2023/04/17 07:41:34;;;;;;;41.70;31.80;;;12.00;99.90;;;;;;5019379;28;20454;-89
2023/04/17 07:44:02;;;;;;;46.00;32.50;;;11.90;99.90;;;;;;5041881;28;20443;-88
2023/04/17 07:46:28;;;;;;;50.70;35.27;;;11.90;99.90;;;;;;5056053;28;20455;-92
2023/04/17 07:48:54;;;;;;;55.07;41.63;;;11.90;99.90;;;;;;5039337;28;20447;-88
2023/04/17 07:51:25;;;;;;;53.40;35.67;;;11.90;99.90;;;;;;5036087;28;20521;-88
2023/04/17 07:53:50;;;;;;;57.93;36.53;;;11.80;99.90;;;;;;5002956;28;20433;-87
2023/04/17 07:56:16;;;;;;;47.27;32.30;;;11.80;99.90;;;;;;5018643;28;20467;-87
2023/04/17 07:58:43;;;;;;;44.47;31.43;;;11.90;99.90;;;;;;4998877;28;20430;-85
2023/04/17 08:01:12;;;;;;;40.83;30.13;;;11.80;99.90;;;;;;4998756;28;20500;-86
2023/04/17 08:03:43;;;;;;;41.70;29.20;;;11.90;99.90;;;;;;5010645;28;20474;-85
2023/04/17 08:06:10;;;;;;;42.13;29.87;;;11.90;99.90;;;;;;5035465;28;20418;-86
2023/04/17 08:08:36;;;;;;;43.60;30.00;;;12.00;99.90;;;;;;5018520;28;20445;-84
2023/04/17 08:11:03;;;;;;;38.97;29.67;;;12.00;99.90;;;;;;5054586;28;20582;-86
2023/04/17 08:13:31;;;;;;;37.23;28.00;;;12.20;99.90;;;;;;5049955;28;20431;-87
2023/04/17 08:15:59;;;;;;;47.20;29.50;;;12.20;99.90;;;;;;5038513;28;20704;-90
2023/04/17 08:18:25;;;;;;;38.53;27.97;;;12.30;99.90;;;;;;5041931;28;20425;-89
2023/04/17 08:20:53;;;;;;;41.67;29.90;;;12.40;99.90;;;;;;5036055;28;20414;-89
2023/04/17 08:23:21;;;;;;;39.23;29.77;;;12.40;99.90;;;;;;5002439;28;20453;-88
2023/04/17 08:25:47;;;;;;;39.90;29.83;;;12.40;99.90;;;;;;5018588;28;20468;-90
2023/04/17 08:28:18;;;;;;;34.73;27.50;;;12.40;99.90;;;;;;5025283;28;20435;-91
2023/04/17 08:30:50;;;;;;;43.47;28.87;;;12.40;99.90;;;;;;5040404;28;21035;-90
2023/04/17 08:33:19;;;;;;;37.27;26.60;;;12.50;99.90;;;;;;5002523;28;20437;-90
2023/04/17 08:35:45;;;;;;;33.83;26.57;;;12.50;99.90;;;;;;5035642;28;20400;-91
2023/04/17 08:38:14;;;;;;;39.27;29.90;;;12.60;99.90;;;;;;5018699;28;20517;-89
2023/04/17 08:40:45;;;;;;;41.07;28.77;;;12.60;99.90;;;;;;5017840;28;20481;-87
2023/04/17 08:43:19;;;;;;;38.77;28.43;;;12.70;99.90;;;;;;5017704;28;20469;-89
2023/04/17 08:45:55;;;;;;;35.50;28.53;;;12.70;99.90;;;;;;5036237;28;20492;-88
2023/04/17 08:48:22;;;;;;;37.23;26.60;;;12.70;99.90;;;;;;5028717;28;20435;-88
2023/04/17 08:50:50;;;;;;;39.17;29.40;;;12.80;99.90;;;;;;5041857;28;20965;-89
2023/04/17 08:53:17;;;;;;;39.93;30.23;;;12.70;99.90;;;;;;5034707;28;20411;-89
2023/04/17 08:55:44;;;;;;;39.70;29.97;;;12.70;99.90;;;;;;5010003;28;20765;-88
2023/04/17 08:58:11;;;;;;;38.40;28.33;;;12.80;99.90;;;;;;5017927;28;20422;-88
2023/04/17 09:00:42;;;;;;;36.80;27.83;;;12.90;99.90;;;;;;5022130;28;20532;-87
2023/04/17 09:03:11;;;;;;;35.30;28.40;;;12.90;99.90;;;;;;5037265;28;20464;-88
2023/04/17 09:05:38;;;;;;;36.30;27.87;;;12.90;99.90;;;;;;5005013;28;20442;-88
2023/04/17 09:08:10;;;;;;;33.87;27.37;;;13.00;99.90;;;;;;5033833;28;20505;-86
2023/04/17 09:10:38;;;;;;;33.83;26.10;;;13.00;99.90;;;;;;5017085;28;20486;-88
2023/04/17 09:13:07;;;;;;;28.87;22.90;;;13.10;99.90;;;;;;5040895;28;20433;-87
2023/04/17 09:15:34;;;;;;;28.90;22.97;;;13.10;99.90;;;;;;4982017;28;20424;-88
2023/04/17 09:18:03;;;;;;;32.67;24.63;;;13.10;99.90;;;;;;5052310;28;20429;-87
2023/04/17 09:20:29;;;;;;;30.70;25.53;;;13.10;99.90;;;;;;5040150;28;20417;-88
2023/04/17 09:23:00;;;;;;;30.80;25.13;;;13.10;99.90;;;;;;5057632;28;20422;-86
2023/04/17 09:25:26;;;;;;;30.77;24.80;;;13.10;99.90;;;;;;5058136;28;20418;-87
2023/04/17 09:27:53;;;;;;;32.33;25.40;;;13.10;99.90;;;;;;5007834;28;20474;-89
2023/04/17 09:30:19;;;;;;;28.30;23.80;;;13.20;99.90;;;;;;5021410;28;20815;-87
2023/04/17 09:32:47;;;;;;;29.30;24.63;;;13.20;99.90;;;;;;5029046;28;20426;-86
2023/04/17 09:35:28;;;;;;;29.27;24.23;;;13.30;99.90;;;;;;5021151;28;20817;-88
2023/04/17 09:37:58;;;;;;;36.13;23.50;;;13.40;99.90;;;;;;5021042;28;20444;-87
2023/04/17 09:40:24;;;;;;;27.63;22.17;;;13.40;99.90;;;;;;5004779;28;20512;-88
2023/04/17 09:42:55;;;;;;;27.00;22.27;;;13.50;99.90;;;;;;5038196;28;20434;-88
2023/04/17 09:45:23;;;;;;;25.37;21.20;;;13.60;99.90;;;;;;5021327;28;20443;-89
2023/04/17 09:47:54;;;;;;;29.43;19.07;;;13.60;99.90;;;;;;5041215;28;20455;-85
2023/04/17 09:50:23;;;;;;;26.17;20.20;;;13.70;99.80;;;;;;5023686;28;20522;-87
2023/04/17 09:52:51;;;;;;;26.17;19.57;;;13.70;99.60;;;;;;5037390;28;20487;-87
2023/04/17 09:55:22;;;;;;;27.23;20.67;;;13.70;99.20;;;;;;5004769;28;20733;-86
2023/04/17 09:57:52;;;;;;;25.63;21.20;;;13.70;99.20;;;;;;5021051;28;20438;-88
2023/04/17 10:00:20;;;;;;;26.23;21.67;;;13.80;99.20;;;;;;5048790;28;20469;-87
2023/04/17 10:02:50;;;;;;;24.23;20.20;;;13.80;99.60;;;;;;5020598;28;20456;-86
2023/04/17 10:05:22;;;;;;;24.63;19.67;;;13.80;99.30;;;;;;5037877;28;20426;-88
2023/04/17 10:07:50;;;;;;;24.80;20.10;;;13.90;98.60;;;;;;5036776;28;20402;-88
2023/04/17 10:10:36;;;;;;;30.33;20.10;;;13.90;99.10;;;;;;4988332;28;20941;-89
2023/04/17 10:13:05;;;;;;;21.90;18.30;;;13.90;98.80;;;;;;5042348;28;20434;-86
2023/04/17 10:15:35;;;;;;;26.13;21.90;;;13.90;98.10;;;;;;5040623;28;20414;-86
2023/04/17 10:18:22;;;;;;;21.03;18.73;;;13.90;98.00;;;;;;5057821;28;20424;-87
2023/04/17 10:20:50;;;;;;;24.10;20.27;;;13.80;97.80;;;;;;5056923;28;20436;-86
2023/04/17 10:23:32;;;;;;;26.30;19.00;;;13.90;97.70;;;;;;5040033;28;20429;-87
2023/04/17 10:26:26;;;;;;;20.63;18.37;;;13.90;97.30;;;;;;5023971;28;20426;-86
2023/04/17 10:28:54;;;;;;;20.20;17.80;;;14.00;96.90;;;;;;5045544;28;20526;-88
2023/04/17 10:31:43;;;;;;;21.03;17.67;;;14.00;96.70;;;;;;5059145;28;20882;-87
2023/04/17 10:34:35;;;;;;;19.70;15.87;;;14.10;96.50;;;;;;5040018;28;20522;-89
2023/04/17 10:37:01;;;;;;;19.50;15.50;;;14.20;96.00;;;;;;5023636;28;20447;-88
2023/04/17 10:40:01;;;;;;;17.43;15.27;;;14.30;95.20;;;;;;5030023;28;20918;-93
2023/04/17 10:42:31;;;;;;;20.20;14.87;;;14.40;95.30;;;;;;4988421;28;20435;-91
2023/04/17 10:45:00;;;;;;;18.07;14.70;;;14.50;95.50;;;;;;5004489;28;20443;-90
2023/04/17 10:47:33;;;;;;;20.53;14.10;;;14.50;94.80;;;;;;5004505;28;20431;-91
2023/04/17 10:50:02;;;;;;;16.30;12.30;;;14.60;94.20;;;;;;5037024;28;20512;-91
2023/04/17 10:52:41;;;;;;;18.97;13.43;;;14.70;94.80;;;;;;5000671;28;20774;-91
2023/04/17 10:55:22;;;;;;;16.07;12.77;;;14.80;94.40;;;;;;5000756;28;20776;-91
2023/04/17 10:58:00;;;;;;;15.20;11.40;;;14.90;93.30;;;;;;5016660;28;20465;-90
2023/04/17 11:00:36;;;;;;;13.53;11.40;;;15.00;93.40;;;;;;5015544;28;20930;-93
2023/04/17 11:03:03;;;;;;;16.70;12.90;;;15.00;93.30;;;;;;5004109;28;20423;-93
2023/04/17 11:05:30;;;;;;;15.60;12.23;;;15.10;93.40;;;;;;5003626;28;20447;-87
2023/04/17 11:07:57;;;;;;;14.03;12.43;;;15.20;93.10;;;;;;5003490;28;20432;-91
2023/04/17 11:10:23;;;;;;;12.30;10.77;;;15.30;92.20;;;;;;5003768;28;20446;-92
2023/04/17 11:13:00;;;;;;;12.17;10.30;;;15.30;92.40;;;;;;5019832;28;20457;-92
2023/04/17 11:15:32;;;;;;;12.47;9.60;;;15.40;92.10;;;;;;5020070;28;20473;-92
2023/04/17 11:17:59;;;;;;;14.23;10.40;;;15.40;90.80;;;;;;5020007;28;20463;-88
2023/04/17 11:20:28;;;;;;;13.80;11.03;;;15.40;90.20;;;;;;5003045;28;21054;-89
2023/04/17 11:23:01;;;;;;;13.33;9.57;;;15.50;90.30;;;;;;5003231;28;20518;-90
2023/04/17 11:25:30;;;;;;;14.50;10.13;;;15.50;90.40;;;;;;5019725;28;20422;-89
2023/04/17 11:28:01;;;;;;;16.00;9.67;;;15.60;90.50;;;;;;5019556;28;20423;-90
2023/04/17 11:30:28;;;;;;;11.90;10.17;;;15.60;90.40;;;;;;5002917;28;20440;-88
2023/04/17 11:33:06;;;;;;;14.40;11.00;;;15.70;90.40;;;;;;5003033;28;20428;-89
2023/04/17 11:35:35;;;;;;;12.40;10.23;;;15.70;89.30;;;;;;5019834;28;20423;-91
2023/04/17 11:38:07;;;;;;;16.37;10.60;;;15.70;90.20;;;;;;5019777;28;20933;-91
2023/04/17 11:40:33;;;;;;;10.90;9.37;;;15.80;88.70;;;;;;5003393;28;20436;-91
2023/04/17 11:43:05;;;;;;;14.57;10.17;;;15.80;89.70;;;;;;5003020;28;20580;-88
2023/04/17 11:45:33;;;;;;;10.43;9.40;;;15.80;89.50;;;;;;5018774;28;20415;-87
2023/04/17 11:48:02;;;;;;;12.57;9.60;;;15.80;88.10;;;;;;5002733;28;20432;-88
2023/04/17 11:50:32;;;;;;;9.80;8.80;;;15.80;88.90;;;;;;5018733;28;20810;-87
2023/04/17 11:53:05;;;;;;;15.87;9.03;;;15.80;88.10;;;;;;5002560;28;20435;-86
2023/04/17 11:55:34;;;;;;;9.57;8.57;;;15.80;87.70;;;;;;5018574;28;20407;-89
2023/04/17 11:58:04;;;;;;;8.93;7.97;;;15.80;88.40;;;;;;5034736;28;20436;-88
2023/04/17 12:00:31;;;;;;;9.40;7.97;;;15.80;88.40;;;;;;5002442;28;20912;-89
2023/04/17 12:03:01;;;;;;;9.03;7.57;;;15.80;87.70;;;;;;5018627;28;20427;-90
2023/04/17 12:05:29;;;;;;;8.50;7.60;;;15.90;87.10;;;;;;5002516;28;20425;-89
2023/04/17 12:08:06;;;;;;;10.50;7.77;;;16.00;85.40;;;;;;5002422;28;20489;-90
2023/04/17 12:10:39;;;;;;;33.97;27.87;;;16.00;85.50;;;;;;5002416;28;20428;-89
2023/04/17 12:13:05;;;;;;;12.03;8.73;;;16.00;83.70;;;;;;5001589;28;20512;-89
2023/04/17 12:15:31;;;;;;;10.23;8.30;;;15.90;83.40;;;;;;5018481;28;20428;-88
2023/04/17 12:17:57;;;;;;;36.83;10.50;;;15.90;85.00;;;;;;5002084;28;21143;-89
2023/04/17 12:20:23;;;;;;;10.53;8.83;;;15.80;83.00;;;;;;5037533;28;20495;-92
2023/04/17 12:22:49;;;;;;;10.80;7.97;;;15.70;82.40;;;;;;5022610;28;20763;-92
2023/04/17 12:25:15;;;;;;;9.70;8.40;;;15.60;83.80;;;;;;5038902;28;20526;-90
2023/04/17 12:30:56;;;;;;;15.77;8.10;;;15.40;84.80;;;;;;5032595;28;20503;-94
2023/04/17 12:33:22;;;;;;;8.87;7.30;;;15.40;85.90;;;;;;5039860;28;20455;-94
2023/04/17 12:36:09;;;;;;;14.07;7.43;;;15.40;84.30;;;;;;5034193;28;20432;-92
2023/04/17 12:38:54;;;;;;;9.20;8.30;;;15.50;83.80;;;;;;5042210;28;20433;-95
2023/04/17 12:44:54;;;;;;;8.83;7.40;;;15.80;84.10;;;;;;5040599;28;20437;-91